createdAt,value
2023-05-12T00:00:09.261Z,62.12
2023-05-12T00:05:49.988Z,72.09
2023-05-12T00:11:21.329Z,74.75
2023-05-12T00:16:47.999Z,70.92
2023-05-12T00:22:18.315Z,67.04
2023-05-12T00:27:46.424Z,62.48
2023-05-12T00:33:14.481Z,53.48
2023-05-12T00:38:40.111Z,48.96
2023-05-12T00:44:08.752Z,49.10
2023-05-12T00:49:36.089Z,50.39
2023-05-12T00:55:01.869Z,51.88
2023-05-12T01:00:46.920Z,53.41
2023-05-12T01:07:06.298Z,54.58
2023-05-12T01:20:36.489Z,58.52
2023-05-12T01:26:13.156Z,58.53
2023-05-12T01:31:44.291Z,58.91
2023-05-12T01:37:13.776Z,59.30
2023-05-12T01:42:46.269Z,59.61
2023-05-12T01:48:11.430Z,59.78
2023-05-12T01:53:36.691Z,60.22
2023-05-12T01:59:01.863Z,60.55
2023-05-12T02:04:29.936Z,60.86
2023-05-12T02:09:55.970Z,60.96
2023-05-12T02:15:24.392Z,61.08
2023-05-12T02:20:53.309Z,61.34
2023-05-12T02:26:19.779Z,69.11
2023-05-12T02:31:44.633Z,74.17
2023-05-12T02:37:13.298Z,70.95
2023-05-12T02:42:38.761Z,66.33
2023-05-12T02:48:10.956Z,62.42
2023-05-12T02:54:18.794Z,53.69
2023-05-12T02:59:51.453Z,49.67
2023-05-12T03:05:29.718Z,49.98
2023-05-12T03:10:54.909Z,51.13
2023-05-12T03:16:19.935Z,52.63
2023-05-12T03:22:26.501Z,53.94
2023-05-12T03:27:58.416Z,55.48
2023-05-12T03:33:23.821Z,57.50
2023-05-12T03:38:59.193Z,58.60
2023-05-12T03:44:46.830Z,59.16
2023-05-12T03:50:15.057Z,59.64
2023-05-12T03:55:45.937Z,60.30
2023-05-12T04:01:11.622Z,60.88
2023-05-12T04:06:42.345Z,61.51
2023-05-12T04:12:10.485Z,69.00
2023-05-12T04:17:35.383Z,72.39
2023-05-12T04:23:03.395Z,68.10
2023-05-12T04:28:28.252Z,62.99
2023-05-12T04:34:02.782Z,54.99
2023-05-12T04:39:33.932Z,50.70
2023-05-12T04:45:13.322Z,51.60
2023-05-12T04:50:44.312Z,53.57
2023-05-12T04:56:09.175Z,54.42
2023-05-12T05:01:45.099Z,55.92
2023-05-12T05:07:34.502Z,56.55
2023-05-12T05:13:37.425Z,57.32
2023-05-12T05:19:06.905Z,57.62
2023-05-12T05:24:49.115Z,58.58
2023-05-12T05:30:13.765Z,58.03
2023-05-12T05:35:50.962Z,58.48
2023-05-12T05:42:05.133Z,58.64
2023-05-12T05:47:43.024Z,58.74
2023-05-12T05:53:08.510Z,58.90
2023-05-12T05:58:36.477Z,58.80
2023-05-12T06:04:03.367Z,59.00
2023-05-12T06:09:30.387Z,58.65
2023-05-12T06:14:56.252Z,58.56
2023-05-12T06:20:53.839Z,58.22
2023-05-12T06:27:00.649Z,58.29
2023-05-12T06:32:57.331Z,58.19
2023-05-12T06:38:54.959Z,58.31
2023-05-12T06:44:54.099Z,58.14
2023-05-12T06:50:40.195Z,58.03
2023-05-12T06:56:29.566Z,58.16
2023-05-12T07:01:59.071Z,58.25
2023-05-12T07:07:31.605Z,57.88
2023-05-12T07:13:28.003Z,58.08
2023-05-12T07:19:13.199Z,57.64
2023-05-12T07:24:42.195Z,57.56
2023-05-12T07:30:10.335Z,57.60
2023-05-12T07:35:35.182Z,57.74
2023-05-12T07:41:03.433Z,57.72
2023-05-12T07:47:28.665Z,57.64
2023-05-12T08:33:30.066Z,56.89
2023-05-12T08:38:57.526Z,55.64
2023-05-12T08:45:23.200Z,55.71
2023-05-12T08:50:58.095Z,55.25
2023-05-12T09:02:52.030Z,54.97
2023-05-12T09:08:20.583Z,55.32
2023-05-12T09:14:29.304Z,55.24
2023-05-12T09:19:59.483Z,54.35
2023-05-12T09:25:29.871Z,53.71
2023-05-12T09:30:59.654Z,53.15
2023-05-12T09:36:41.811Z,52.74
2023-05-12T09:42:13.746Z,52.08
2023-05-12T09:47:42.130Z,51.06
2023-05-12T09:53:24.340Z,50.86
2023-05-12T09:58:51.034Z,50.76
2023-05-12T10:04:38.097Z,50.32
2023-05-12T10:10:05.889Z,50.56
2023-05-12T10:15:40.358Z,49.81
2023-05-12T10:21:33.118Z,48.91
2023-05-12T10:27:06.658Z,48.44
2023-05-12T10:32:43.923Z,46.72
2023-05-12T10:38:18.568Z,46.31
2023-05-12T10:43:56.483Z,46.14
2023-05-12T10:49:33.477Z,46.20
2023-05-12T10:55:04.769Z,45.53
2023-05-12T11:00:43.997Z,44.67
2023-05-12T11:06:22.706Z,44.31
2023-05-12T11:12:17.555Z,44.50
2023-05-12T11:18:16.725Z,43.31
2023-05-12T11:23:51.493Z,42.38
2023-05-12T11:29:16.446Z,41.45
2023-05-12T11:34:44.158Z,41.06
2023-05-12T11:40:24.479Z,40.38
2023-05-12T11:45:53.810Z,40.10
2023-05-12T11:51:25.220Z,39.97
2023-05-12T11:56:55.355Z,39.36
2023-05-12T12:02:22.270Z,37.97
2023-05-12T12:07:49.823Z,37.81
2023-05-12T12:13:27.885Z,37.95
2023-05-12T12:19:16.044Z,38.60
2023-05-12T12:24:44.398Z,37.40
2023-05-12T12:30:10.929Z,37.31
2023-05-12T12:35:38.758Z,37.51
2023-05-12T12:41:03.211Z,37.22
2023-05-12T12:46:34.940Z,37.09
2023-05-12T12:52:02.676Z,36.62
2023-05-12T12:57:31.122Z,36.24
2023-05-12T13:02:57.142Z,36.75
2023-05-12T13:08:24.814Z,36.75
2023-05-12T13:13:52.577Z,37.03
2023-05-12T13:19:20.747Z,36.30
2023-05-12T13:24:57.118Z,36.27
2023-05-12T13:30:23.054Z,35.53
2023-05-12T13:35:48.938Z,35.14
2023-05-12T13:41:16.983Z,34.97
2023-05-12T13:46:45.092Z,34.82
2023-05-12T13:52:09.757Z,34.51
2023-05-12T13:57:40.330Z,33.76
2023-05-12T14:03:08.593Z,33.39
2023-05-12T14:08:34.771Z,33.78
2023-05-12T14:14:12.267Z,33.86
2023-05-12T14:20:27.214Z,33.46
2023-05-12T14:27:01.421Z,33.66
2023-05-12T15:12:16.507Z,34.17
2023-05-12T15:17:48.153Z,34.65
2023-05-12T15:23:51.628Z,34.87
2023-05-12T15:29:39.914Z,34.59
2023-05-12T15:35:10.241Z,34.05
2023-05-12T15:41:02.994Z,34.02
2023-05-12T15:46:47.937Z,33.80
2023-05-12T15:52:13.038Z,34.17
2023-05-12T15:57:49.134Z,33.77
2023-05-12T16:03:35.083Z,33.65
2023-05-12T16:09:21.809Z,33.66
2023-05-12T16:15:50.205Z,33.38
2023-05-12T16:21:28.473Z,34.18
2023-05-12T16:27:03.991Z,34.25
2023-05-12T16:32:38.042Z,34.77
2023-05-12T16:38:08.998Z,34.52
2023-05-12T16:43:44.475Z,34.35
2023-05-12T16:50:01.250Z,34.52
2023-05-12T16:55:29.632Z,34.91
2023-05-12T17:01:06.257Z,35.34
2023-05-12T17:06:31.451Z,35.81
2023-05-12T17:11:59.092Z,36.11
2023-05-12T17:17:42.512Z,36.72
2023-05-12T17:23:10.568Z,37.26
2023-05-12T17:29:19.642Z,37.73
2023-05-12T17:35:00.000Z,37.97
2023-05-12T17:40:46.143Z,38.34
2023-05-12T17:46:54.116Z,38.66
2023-05-12T17:52:34.033Z,39.18
2023-05-12T17:58:15.981Z,39.45
2023-05-12T18:03:44.359Z,40.18
2023-05-12T18:09:16.491Z,40.95
2023-05-12T18:14:52.058Z,41.37
2023-05-12T18:20:37.616Z,41.81
2023-05-12T18:26:22.654Z,42.10
2023-05-12T18:31:50.629Z,42.48
2023-05-12T18:37:19.023Z,43.00
2023-05-12T18:43:44.349Z,43.74
2023-05-12T18:50:10.202Z,44.44
2023-05-12T18:55:37.796Z,45.25
2023-05-12T19:01:27.566Z,45.93
2023-05-12T19:06:58.772Z,46.28
2023-05-12T19:12:28.286Z,46.88
2023-05-12T19:18:09.482Z,47.28
2023-05-12T19:23:58.068Z,47.81
2023-05-12T19:29:30.179Z,48.41
2023-05-12T19:34:58.093Z,49.06
2023-05-12T19:40:23.377Z,49.55
2023-05-12T19:45:52.268Z,50.00
2023-05-12T19:51:17.161Z,50.27
2023-05-12T19:57:03.801Z,50.51
2023-05-12T20:02:32.107Z,50.76
2023-05-12T20:08:20.662Z,50.98
2023-05-12T20:14:06.347Z,51.12
2023-05-12T20:19:57.321Z,51.34
2023-05-12T20:25:42.795Z,51.49
2023-05-12T20:31:10.513Z,51.86
2023-05-12T20:37:00.010Z,52.18
2023-05-12T20:42:27.751Z,52.37
2023-05-12T20:47:54.661Z,51.83
2023-05-12T20:53:37.837Z,52.31
2023-05-12T20:59:15.501Z,52.58
2023-05-12T21:04:51.986Z,52.65
2023-05-12T21:10:21.886Z,52.90
2023-05-12T21:15:46.326Z,53.36
2023-05-12T21:21:14.231Z,53.62
2023-05-12T21:26:40.495Z,53.81
2023-05-12T21:32:08.015Z,53.95
2023-05-12T21:37:49.883Z,54.11
2023-05-12T21:43:22.802Z,54.24
2023-05-12T21:49:03.065Z,54.48
2023-05-12T21:54:48.938Z,54.64
2023-05-12T22:00:20.568Z,54.94
2023-05-12T22:06:01.303Z,55.20
2023-05-12T22:11:25.794Z,55.31
2023-05-12T22:16:56.395Z,55.62
2023-05-12T22:22:33.300Z,55.77
2023-05-12T22:28:05.882Z,56.03
2023-05-12T22:33:43.619Z,56.24
2023-05-12T22:39:23.007Z,56.38
2023-05-12T22:45:09.086Z,56.51
2023-05-12T22:50:36.351Z,56.71
2023-05-12T22:56:04.045Z,57.15
2023-05-12T23:01:31.929Z,57.36
2023-05-12T23:07:08.987Z,57.48
2023-05-12T23:12:33.821Z,57.49
2023-05-12T23:18:17.015Z,57.62
2023-05-12T23:23:57.550Z,57.69
2023-05-12T23:29:34.780Z,57.89
2023-05-12T23:35:03.032Z,58.08
2023-05-12T23:40:33.527Z,58.28
2023-05-12T23:45:58.614Z,58.45
2023-05-12T23:51:28.938Z,58.55
2023-05-12T23:56:56.806Z,58.63
